Time;durP1;ratioP1;P1;durP2;ratioP2;P2;SDS_P1;SDS_P2;PMS_P1;PMS_P2;Temp;Humidity;BMP_temperature;BMP_pressure;BME280_temperature;BME280_humidity;BME280_pressure;Samples;Min_cycle;Max_cycle;Signal;HPM_P1;HPM_P2
2023/05/14 00:01:45;;;;;;;;;;;;;;;4.71;99.44;97932.38;110171;1242;67695;-76
2023/05/14 00:04:15;;;;;;;;;;;;;;;4.67;98.35;97930.96;110143;1242;59702;-77
2023/05/14 00:06:45;;;;;;;;;;;;;;;4.67;99.80;97932.16;110199;1242;59643;-76
2023/05/14 00:09:15;;;;;;;;;;;;;;;4.67;98.72;97931.64;110239;1243;71236;-78
2023/05/14 00:11:44;;;;;;;;;;;;;;;4.69;96.05;97929.51;110203;1240;69660;-75
2023/05/14 00:14:14;;;;;;;;;;;;;;;4.71;93.62;97930.27;110238;1241;69144;-76
2023/05/14 00:16:43;;;;;;;;;;;;;;;4.74;92.78;97933.61;110189;1243;59682;-77
2023/05/14 00:19:15;;;;;;;;;;;;;;;4.74;96.07;97936.73;110194;1242;59665;-77
2023/05/14 00:21:46;;;;;;;;;;;;;;;4.71;95.82;97935.28;110207;1241;70904;-77
2023/05/14 00:24:17;;;;;;;;;;;;;;;4.69;97.13;97934.86;110259;1242;69141;-77
2023/05/14 00:26:47;;;;;;;;;;;;;;;4.66;97.45;97935.48;110138;1242;70284;-77
2023/05/14 00:29:18;;;;;;;;;;;;;;;4.64;99.96;97933.83;110205;1241;59863;-76
2023/05/14 00:31:50;;;;;;;;;;;;;;;4.61;97.39;97941.05;110297;1242;59715;-76
2023/05/14 00:34:22;;;;;;;;;;;;;;;4.56;97.12;97941.20;110242;1242;70698;-77
2023/05/14 00:36:52;;;;;;;;;;;;;;;4.50;99.92;97940.95;110236;1241;68401;-76
2023/05/14 00:39:23;;;;;;;;;;;;;;;4.45;100.00;97936.31;110222;1243;68443;-76
2023/05/14 00:41:54;;;;;;;;;;;;;;;4.40;100.00;97931.85;110171;1243;59747;-75
2023/05/14 00:44:27;;;;;;;;;;;;;;;4.35;100.00;97930.14;110240;1241;59682;-77
2023/05/14 00:46:58;;;;;;;;;;;;;;;4.30;100.00;97932.07;110186;1240;71202;-76
2023/05/14 00:49:29;;;;;;;;;;;;;;;4.26;99.84;97926.39;110208;1244;69215;-76
2023/05/14 00:52:00;;;;;;;;;;;;;;;4.25;100.00;97925.73;110195;1241;69326;-75
2023/05/14 00:54:32;;;;;;;;;;;;;;;4.24;99.89;97924.02;110172;1246;59745;-76
2023/05/14 00:57:04;;;;;;;;;;;;;;;4.23;100.00;97924.23;110238;1242;59644;-76
2023/05/14 00:59:33;;;;;;;;;;;;;;;4.23;100.00;97926.66;110284;1241;72003;-76
2023/05/14 01:02:04;;;;;;;;;;;;;;;4.22;100.00;97923.11;110196;1246;69252;-76
2023/05/14 01:04:35;;;;;;;;;;;;;;;4.20;100.00;97920.23;110155;1241;69216;-76
2023/05/14 01:07:20;;;;;;;;;;;;;;;4.17;99.71;97916.90;110148;1242;59737;-76
2023/05/14 01:10:07;;;;;;;;;;;;;;;4.16;96.07;97910.23;110260;1241;59718;-76
2023/05/14 01:12:55;;;;;;;;;;;;;;;4.17;99.33;97910.52;110238;1242;71831;-73
2023/05/14 01:15:31;;;;;;;;;;;;;;;4.13;99.73;97907.05;110169;1241;68475;-76
2023/05/14 01:18:03;;;;;;;;;;;;;;;4.13;99.64;97907.77;110261;1242;69261;-76
2023/05/14 01:20:35;;;;;;;;;;;;;;;4.11;99.98;97915.41;110250;1241;59743;-76
2023/05/14 01:23:05;;;;;;;;;;;;;;;4.11;100.00;97915.06;110169;1242;59657;-76
2023/05/14 01:25:36;;;;;;;;;;;;;;;4.08;100.00;97913.46;110192;1242;70281;-76
2023/05/14 01:28:19;;;;;;;;;;;;;;;4.06;100.00;97916.78;110195;1243;69280;-75
2023/05/14 01:30:52;;;;;;;;;;;;;;;4.03;100.00;97905.02;110178;1241;68933;-75
2023/05/14 01:33:24;;;;;;;;;;;;;;;4.06;100.00;97899.91;110237;1242;59673;-75
2023/05/14 01:36:00;;;;;;;;;;;;;;;4.09;100.00;97899.08;110231;1243;59732;-74
2023/05/14 01:38:32;;;;;;;;;;;;;;;4.10;100.00;97904.22;110140;1244;71835;-75
2023/05/14 01:41:05;;;;;;;;;;;;;;;4.10;100.00;97909.23;110145;1245;68323;-75
2023/05/14 01:43:38;;;;;;;;;;;;;;;4.02;100.00;97906.93;110152;1242;69196;-75
2023/05/14 01:46:16;;;;;;;;;;;;;;;3.94;100.00;97902.77;109895;1241;59879;-75
2023/05/14 01:48:46;;;;;;;;;;;;;;;3.89;100.00;97895.73;110153;1241;59658;-74
2023/05/14 01:51:17;;;;;;;;;;;;;;;3.86;100.00;97892.04;110260;1243;71404;-75
2023/05/14 01:53:48;;;;;;;;;;;;;;;3.84;100.00;97888.16;110242;1241;69286;-76
2023/05/14 01:56:24;;;;;;;;;;;;;;;3.82;100.00;97886.00;110261;1242;69091;-75
2023/05/14 01:58:55;;;;;;;;;;;;;;;3.80;100.00;97888.47;110191;1243;59759;-75
2023/05/14 02:01:25;;;;;;;;;;;;;;;3.80;100.00;97889.16;110189;1241;59814;-75
2023/05/14 02:03:56;;;;;;;;;;;;;;;3.79;100.00;97891.10;110113;1241;71578;-74
2023/05/14 02:06:28;;;;;;;;;;;;;;;3.78;100.00;97892.50;109100;1242;1505867;-75
2023/05/14 02:08:59;;;;;;;;;;;;;;;3.76;100.00;97888.47;110322;1242;68188;-75
2023/05/14 02:11:29;;;;;;;;;;;;;;;3.75;100.00;97886.62;110143;1241;59676;-75
2023/05/14 02:14:00;;;;;;;;;;;;;;;3.72;100.00;97886.17;110215;1241;59637;-75
2023/05/14 02:16:30;;;;;;;;;;;;;;;3.71;100.00;97884.16;110265;1241;71413;-75
2023/05/14 02:19:01;;;;;;;;;;;;;;;3.69;100.00;97873.06;110339;1241;69245;-74
2023/05/14 02:21:31;;;;;;;;;;;;;;;3.68;100.00;97873.59;110108;1244;68876;-76
2023/05/14 02:24:02;;;;;;;;;;;;;;;3.67;99.87;97873.45;110140;1241;59710;-75
2023/05/14 02:26:31;;;;;;;;;;;;;;;3.66;99.65;97878.86;110172;1242;59697;-75
2023/05/14 02:29:01;;;;;;;;;;;;;;;3.63;99.97;97877.92;110193;1242;71365;-74
2023/05/14 02:31:34;;;;;;;;;;;;;;;3.60;100.00;97874.25;110232;1242;68559;-73
2023/05/14 02:34:05;;;;;;;;;;;;;;;3.57;100.00;97879.88;110215;1242;69345;-75
2023/05/14 02:36:35;;;;;;;;;;;;;;;3.54;100.00;97879.80;110167;1242;59750;-75
2023/05/14 02:39:05;;;;;;;;;;;;;;;3.51;100.00;97884.04;110207;1240;59740;-74
2023/05/14 02:41:35;;;;;;;;;;;;;;;3.48;100.00;97890.87;110251;1242;71239;-75
2023/05/14 02:44:06;;;;;;;;;;;;;;;3.46;100.00;97887.86;110137;1244;69166;-75
2023/05/14 02:46:37;;;;;;;;;;;;;;;3.44;100.00;97889.98;110220;1241;69273;-75
2023/05/14 02:49:07;;;;;;;;;;;;;;;3.43;100.00;97889.16;110242;1242;59633;-75
2023/05/14 02:51:38;;;;;;;;;;;;;;;3.43;100.00;97888.33;110263;1243;59734;-76
2023/05/14 02:54:08;;;;;;;;;;;;;;;3.43;100.00;97889.52;110121;1242;71852;-75
2023/05/14 02:56:38;;;;;;;;;;;;;;;3.44;100.00;97889.66;110148;1244;69256;-75
2023/05/14 02:59:07;;;;;;;;;;;;;;;3.43;100.00;97882.61;110187;1241;69386;-74
2023/05/14 03:01:38;;;;;;;;;;;;;;;3.43;100.00;97879.52;110174;1242;59699;-74
2023/05/14 03:04:09;;;;;;;;;;;;;;;3.43;100.00;97880.56;110212;1242;59692;-76
2023/05/14 03:06:40;;;;;;;;;;;;;;;3.44;100.00;97875.88;110131;1247;70660;-74
2023/05/14 03:09:14;;;;;;;;;;;;;;;3.44;100.00;97872.76;110188;1242;68583;-75
2023/05/14 03:11:44;;;;;;;;;;;;;;;3.45;100.00;97869.78;110237;1242;68537;-74
2023/05/14 03:14:14;;;;;;;;;;;;;;;3.50;100.00;97872.35;110143;1244;59802;-74
2023/05/14 03:16:43;;;;;;;;;;;;;;;3.56;100.00;97878.49;110224;1242;59669;-74
2023/05/14 03:19:13;;;;;;;;;;;;;;;3.62;100.00;97874.88;110236;1242;71302;-74
2023/05/14 03:21:44;;;;;;;;;;;;;;;3.63;100.00;97876.04;110267;1243;69675;-74
2023/05/14 03:24:14;;;;;;;;;;;;;;;3.65;100.00;97873.70;110266;1241;68404;-74
2023/05/14 03:26:44;;;;;;;;;;;;;;;3.69;100.00;97872.35;110165;1244;59745;-75
2023/05/14 03:29:16;;;;;;;;;;;;;;;3.73;100.00;97873.40;110234;1241;59694;-75
2023/05/14 03:31:46;;;;;;;;;;;;;;;3.79;100.00;97876.95;110134;1244;71226;-75
2023/05/14 03:34:16;;;;;;;;;;;;;;;3.85;100.00;97880.70;110160;1243;69259;-75
2023/05/14 03:36:46;;;;;;;;;;;;;;;3.92;100.00;97884.77;110137;1241;69220;-75
2023/05/14 03:39:19;;;;;;;;;;;;;;;4.00;100.00;97884.76;110152;1244;59693;-75
2023/05/14 03:41:50;;;;;;;;;;;;;;;4.08;100.00;97882.56;110083;1244;59711;-75
2023/05/14 03:44:20;;;;;;;;;;;;;;;4.16;100.00;97879.48;110201;1240;69868;-75
2023/05/14 03:46:51;;;;;;;;;;;;;;;4.23;100.00;97881.47;110193;1242;69658;-75
2023/05/14 03:49:20;;;;;;;;;;;;;;;4.26;100.00;97887.90;110163;1241;69277;-75
2023/05/14 03:51:51;;;;;;;;;;;;;;;4.26;100.00;97890.67;110173;1241;59751;-74
2023/05/14 03:54:20;;;;;;;;;;;;;;;4.33;100.00;97891.25;110223;1242;59631;-75
2023/05/14 03:56:50;;;;;;;;;;;;;;;4.39;100.00;97890.69;110265;1241;71447;-75
2023/05/14 03:59:19;;;;;;;;;;;;;;;4.45;100.00;97893.67;110129;1243;68490;-74
2023/05/14 04:01:49;;;;;;;;;;;;;;;4.54;100.00;97891.24;110227;1241;69597;-75
2023/05/14 04:04:20;;;;;;;;;;;;;;;4.64;100.00;97893.61;110177;1242;59699;-75
2023/05/14 04:06:49;;;;;;;;;;;;;;;4.75;100.00;97896.27;110199;1241;59683;-74
2023/05/14 04:09:19;;;;;;;;;;;;;;;4.87;100.00;97896.09;110197;1243;71450;-74
2023/05/14 04:11:48;;;;;;;;;;;;;;;5.02;100.00;97894.79;110145;1244;69809;-74
2023/05/14 04:14:17;;;;;;;;;;;;;;;5.21;100.00;97891.02;110171;1241;69320;-75
2023/05/14 04:16:46;;;;;;;;;;;;;;;5.43;100.00;97886.23;110295;1241;59660;-77
2023/05/14 04:19:16;;;;;;;;;;;;;;;5.65;100.00;97875.05;110279;1241;59708;-75
2023/05/14 04:21:46;;;;;;;;;;;;;;;5.89;100.00;97874.14;110224;1242;71208;-74
2023/05/14 04:24:16;;;;;;;;;;;;;;;6.10;100.00;97872.98;110206;1242;69790;-74
2023/05/14 04:26:44;;;;;;;;;;;;;;;6.24;100.00;97877.34;110258;1242;69252;-76
2023/05/14 04:29:14;;;;;;;;;;;;;;;6.32;99.88;97878.52;110338;1242;59740;-77
2023/05/14 04:31:43;;;;;;;;;;;;;;;6.44;99.64;97878.30;110172;1245;59755;-76
2023/05/14 04:34:12;;;;;;;;;;;;;;;6.49;98.54;97881.69;110215;1242;70643;-75
2023/05/14 04:36:41;;;;;;;;;;;;;;;6.52;98.27;97879.80;110186;1243;68477;-76
2023/05/14 04:39:11;;;;;;;;;;;;;;;6.60;98.18;97883.88;110190;1242;69868;-75
2023/05/14 04:41:41;;;;;;;;;;;;;;;6.66;97.45;97881.89;110138;1245;59783;-75
2023/05/14 04:44:11;;;;;;;;;;;;;;;6.71;97.57;97881.98;110259;1242;59817;-74
2023/05/14 04:46:40;;;;;;;;;;;;;;;6.81;97.69;97880.95;110257;1240;70831;-75
2023/05/14 04:49:11;;;;;;;;;;;;;;;6.92;97.97;97885.06;110245;1242;69300;-76
2023/05/14 04:51:40;;;;;;;;;;;;;;;7.03;98.27;97880.36;110191;1243;69635;-74
2023/05/14 04:54:10;;;;;;;;;;;;;;;7.20;97.32;97875.31;110313;1242;59631;-75
2023/05/14 04:56:39;;;;;;;;;;;;;;;7.36;96.93;97872.21;110281;1242;59811;-76
2023/05/14 04:59:08;;;;;;;;;;;;;;;7.56;96.32;97869.60;110223;1244;70830;-75
2023/05/14 05:01:37;;;;;;;;;;;;;;;7.80;94.36;97867.27;110248;1241;69069;-75
2023/05/14 05:04:06;;;;;;;;;;;;;;;8.12;93.92;97870.02;110279;1242;69905;-74
2023/05/14 05:06:36;;;;;;;;;;;;;;;8.49;92.30;97871.09;110342;1242;59740;-74
2023/05/14 05:09:05;;;;;;;;;;;;;;;8.88;90.48;97868.88;110330;1242;59656;-76
2023/05/14 05:11:34;;;;;;;;;;;;;;;9.47;90.35;97871.40;110392;1241;72022;-76
2023/05/14 05:14:03;;;;;;;;;;;;;;;10.06;87.13;97872.31;110343;1242;68223;-71
2023/05/14 05:16:33;;;;;;;;;;;;;;;10.42;81.55;97869.63;110329;1241;67768;-76
2023/05/14 05:19:02;;;;;;;;;;;;;;;10.79;80.95;97867.88;110223;1242;59694;-75
2023/05/14 05:21:31;;;;;;;;;;;;;;;10.91;77.99;97870.41;110150;1244;59745;-76
2023/05/14 05:24:00;;;;;;;;;;;;;;;11.25;78.95;97872.80;110241;1244;70839;-76
2023/05/14 05:26:28;;;;;;;;;;;;;;;11.62;77.90;97864.20;110316;1240;69128;-76
2023/05/14 05:28:58;;;;;;;;;;;;;;;11.86;73.51;97866.02;110250;1240;69202;-75
2023/05/14 05:31:26;;;;;;;;;;;;;;;12.22;71.24;97869.17;110406;1242;59725;-74
2023/05/14 05:33:55;;;;;;;;;;;;;;;12.41;68.78;97866.63;110321;1242;59699;-73
2023/05/14 05:36:25;;;;;;;;;;;;;;;12.65;67.42;97863.45;110358;1242;70338;-77
2023/05/14 05:38:54;;;;;;;;;;;;;;;12.86;67.19;97857.14;110390;1241;68273;-73
2023/05/14 05:41:22;;;;;;;;;;;;;;;12.90;67.04;97854.21;110213;1242;69269;-74
2023/05/14 05:43:51;;;;;;;;;;;;;;;13.03;66.53;97849.71;110232;1242;59737;-74
2023/05/14 05:46:20;;;;;;;;;;;;;;;13.41;67.34;97846.67;110348;1240;59747;-73
2023/05/14 05:48:49;;;;;;;;;;;;;;;13.66;65.72;97845.41;110314;1242;71333;-75
2023/05/14 05:51:18;;;;;;;;;;;;;;;13.84;65.81;97847.02;110255;1240;69973;-75
2023/05/14 05:53:47;;;;;;;;;;;;;;;14.02;63.53;97843.27;110284;1242;68892;-73
2023/05/14 05:56:15;;;;;;;;;;;;;;;14.58;62.01;97843.86;110228;1242;59750;-75
2023/05/14 05:58:44;;;;;;;;;;;;;;;15.15;60.09;97841.41;110219;1241;59625;-76
2023/05/14 06:01:12;;;;;;;;;;;;;;;15.78;58.79;97843.77;110287;1241;70989;-76
2023/05/14 06:03:41;;;;;;;;;;;;;;;16.33;57.59;97846.26;110273;1242;70523;-75
2023/05/14 06:06:10;;;;;;;;;;;;;;;16.70;56.14;97844.02;110136;1241;68655;-74
2023/05/14 06:08:38;;;;;;;;;;;;;;;17.07;54.93;97838.87;110102;1241;59726;-74
2023/05/14 06:11:07;;;;;;;;;;;;;;;17.34;51.88;97836.34;110337;1242;59669;-75
2023/05/14 06:13:35;;;;;;;;;;;;;;;17.58;50.56;97836.38;110228;1240;71346;-75
2023/05/14 06:16:04;;;;;;;;;;;;;;;17.67;48.17;97833.54;110204;1242;69147;-74
2023/05/14 06:18:32;;;;;;;;;;;;;;;17.96;50.69;97837.30;110269;1242;68198;-74
2023/05/14 06:21:01;;;;;;;;;;;;;;;18.11;47.71;97833.59;110370;1242;59676;-74
2023/05/14 06:23:30;;;;;;;;;;;;;;;18.26;47.23;97830.23;110266;1241;59711;-74
2023/05/14 06:25:58;;;;;;;;;;;;;;;18.31;45.31;97823.90;110265;1240;70938;-73
2023/05/14 06:28:27;;;;;;;;;;;;;;;18.53;47.17;97820.00;110281;1242;69145;-74
2023/05/14 06:30:55;;;;;;;;;;;;;;;18.83;46.60;97813.79;110292;1242;69742;-75
2023/05/14 06:33:29;;;;;;;;;;;;;;;19.04;45.41;97812.64;110253;1241;59705;-72
2023/05/14 06:36:03;;;;;;;;;;;;;;;19.26;44.45;97812.48;110323;1243;59679;-73
2023/05/14 06:38:32;;;;;;;;;;;;;;;19.40;41.68;97809.66;110340;1240;70916;-75
2023/05/14 06:41:01;;;;;;;;;;;;;;;19.26;39.30;97815.70;110224;1241;68504;-75
2023/05/14 06:43:29;;;;;;;;;;;;;;;19.14;39.15;97811.45;110255;1241;69869;-74
2023/05/14 06:45:59;;;;;;;;;;;;;;;19.06;38.30;97810.80;110232;1242;59691;-75
2023/05/14 06:48:29;;;;;;;;;;;;;;;18.94;38.83;97809.89;110308;1242;59638;-75
2023/05/14 06:50:58;;;;;;;;;;;;;;;18.85;39.22;97806.81;110214;1242;70629;-75
2023/05/14 06:53:28;;;;;;;;;;;;;;;18.78;39.63;97805.48;110300;1242;69900;-76
2023/05/14 06:55:57;;;;;;;;;;;;;;;19.02;39.71;97799.84;110203;1241;69344;-75
2023/05/14 06:58:27;;;;;;;;;;;;;;;19.26;39.41;97800.07;110279;1242;59692;-75
2023/05/14 07:00:57;;;;;;;;;;;;;;;19.38;38.05;97793.61;110239;1241;59686;-76
2023/05/14 07:03:26;;;;;;;;;;;;;;;19.18;37.47;97792.57;110245;1241;72176;-75
2023/05/14 07:05:54;;;;;;;;;;;;;;;19.21;37.99;97790.70;110304;1241;69889;-74
2023/05/14 07:08:23;;;;;;;;;;;;;;;19.47;38.06;97793.39;110329;1242;69986;-74
2023/05/14 07:10:52;;;;;;;;;;;;;;;19.78;37.88;97789.64;110201;1242;59990;-74
2023/05/14 07:13:21;;;;;;;;;;;;;;;20.03;37.12;97780.97;110239;1242;59705;-73
2023/05/14 07:15:50;;;;;;;;;;;;;;;20.05;35.87;97774.27;110175;1241;72198;-73
2023/05/14 07:18:18;;;;;;;;;;;;;;;20.18;36.81;97775.53;110188;1243;69914;-73
2023/05/14 07:20:47;;;;;;;;;;;;;;;20.27;35.86;97769.00;110215;1242;69687;-74
2023/05/14 07:23:16;;;;;;;;;;;;;;;20.39;35.64;97768.78;110314;1241;59704;-73
2023/05/14 07:25:47;;;;;;;;;;;;;;;20.46;35.50;97760.11;110283;1242;59763;-73
2023/05/14 07:28:15;;;;;;;;;;;;;;;20.55;35.11;97760.46;110243;1241;71344;-75
2023/05/14 07:30:44;;;;;;;;;;;;;;;20.71;35.12;97754.08;110244;1241;69244;-75
2023/05/14 07:33:13;;;;;;;;;;;;;;;20.85;34.92;97743.52;110201;1241;68421;-74
2023/05/14 07:35:41;;;;;;;;;;;;;;;20.86;34.19;97748.13;110227;1241;59737;-74
2023/05/14 07:38:10;;;;;;;;;;;;;;;20.74;33.78;97750.00;110249;1242;59748;-74
2023/05/14 07:40:39;;;;;;;;;;;;;;;20.57;34.21;97749.89;110212;1240;71808;-74
2023/05/14 07:43:09;;;;;;;;;;;;;;;20.87;35.40;97745.89;110208;1242;68525;-74
2023/05/14 07:45:38;;;;;;;;;;;;;;;21.12;34.82;97743.73;110133;1240;69167;-74
2023/05/14 07:48:06;;;;;;;;;;;;;;;21.30;34.57;97743.86;110225;1248;59777;-74
2023/05/14 07:50:36;;;;;;;;;;;;;;;21.54;33.31;97739.60;110189;1241;59786;-74
2023/05/14 07:53:04;;;;;;;;;;;;;;;21.69;33.44;97738.96;110203;1241;71455;-74
2023/05/14 07:55:33;;;;;;;;;;;;;;;21.78;33.69;97730.34;110192;1241;69193;-74
2023/05/14 07:58:02;;;;;;;;;;;;;;;22.03;33.31;97726.16;110131;1244;68234;-74
2023/05/14 08:00:32;;;;;;;;;;;;;;;22.18;33.36;97724.42;110210;1241;59756;-74
2023/05/14 08:03:01;;;;;;;;;;;;;;;22.41;32.39;97723.92;110231;1240;59793;-74
2023/05/14 08:05:31;;;;;;;;;;;;;;;22.33;32.80;97731.41;110239;1242;71331;-75
2023/05/14 08:08:00;;;;;;;;;;;;;;;22.35;32.09;97731.23;110244;1242;69776;-74
2023/05/14 08:10:31;;;;;;;;;;;;;;;22.43;32.28;97732.08;110217;1242;68553;-74
2023/05/14 08:13:00;;;;;;;;;;;;;;;22.26;32.50;97730.50;110316;1242;59871;-72
2023/05/14 08:15:29;;;;;;;;;;;;;;;22.05;31.24;97727.85;110199;1242;59758;-73
2023/05/14 08:18:02;;;;;;;;;;;;;;;21.93;31.95;97729.30;110220;1242;71820;-74
2023/05/14 08:20:31;;;;;;;;;;;;;;;21.67;32.25;97725.80;110201;1242;69650;-73
2023/05/14 08:23:00;;;;;;;;;;;;;;;21.52;33.41;97726.54;110223;1241;69261;-73
2023/05/14 08:25:29;;;;;;;;;;;;;;;21.59;32.38;97721.59;110245;1242;59715;-73
2023/05/14 08:27:58;;;;;;;;;;;;;;;21.45;32.15;97719.88;110231;1242;59659;-72
2023/05/14 08:30:27;;;;;;;;;;;;;;;21.40;32.67;97720.70;110212;1242;71437;-73
2023/05/14 08:32:57;;;;;;;;;;;;;;;21.41;33.16;97719.39;110231;1242;69757;-75
2023/05/14 08:35:25;;;;;;;;;;;;;;;21.52;32.92;97711.41;110360;1248;69288;-76
2023/05/14 08:37:55;;;;;;;;;;;;;;;21.69;33.36;97708.08;110271;1241;59763;-75
2023/05/14 08:40:25;;;;;;;;;;;;;;;21.80;32.92;97713.20;110319;1242;59695;-74
2023/05/14 08:42:55;;;;;;;;;;;;;;;21.87;32.65;97713.27;110321;1242;71651;-75
2023/05/14 08:45:27;;;;;;;;;;;;;;;21.90;32.27;97705.12;110230;1241;69330;-74
2023/05/14 08:47:57;;;;;;;;;;;;;;;22.07;32.09;97715.63;110225;1241;68540;-77
2023/05/14 08:50:28;;;;;;;;;;;;;;;22.35;32.34;97714.03;110231;1241;59691;-74
2023/05/14 08:52:58;;;;;;;;;;;;;;;22.55;31.60;97708.47;110294;1242;59766;-75
2023/05/14 08:55:27;;;;;;;;;;;;;;;22.72;31.56;97703.79;110241;1240;71919;-76
2023/05/14 08:57:56;;;;;;;;;;;;;;;22.88;31.49;97697.59;110231;1242;69219;-75
2023/05/14 09:00:25;;;;;;;;;;;;;;;22.89;31.10;97695.71;110305;1242;68188;-73
2023/05/14 09:02:54;;;;;;;;;;;;;;;22.94;31.51;97694.23;110249;1242;59702;-71
2023/05/14 09:05:23;;;;;;;;;;;;;;;23.04;31.08;97687.89;110251;1242;59677;-75
2023/05/14 09:07:52;;;;;;;;;;;;;;;22.95;30.90;97688.98;110190;1240;70452;-76
2023/05/14 09:10:21;;;;;;;;;;;;;;;22.85;30.80;97687.66;110296;1240;69235;-75
2023/05/14 09:12:50;;;;;;;;;;;;;;;22.95;31.14;97686.35;110213;1242;69754;-75
2023/05/14 09:15:19;;;;;;;;;;;;;;;23.33;31.28;97691.52;110199;1242;59618;-75
2023/05/14 09:17:48;;;;;;;;;;;;;;;23.47;30.18;97684.11;110304;1242;59685;-74
2023/05/14 09:20:17;;;;;;;;;;;;;;;23.29;30.07;97684.00;110201;1240;71654;-75
2023/05/14 09:22:51;;;;;;;;;;;;;;;23.42;29.74;97667.91;110247;1242;68542;-74
2023/05/14 09:25:25;;;;;;;;;;;;;;;23.51;30.34;97667.37;110291;1241;69284;-75
2023/05/14 09:27:55;;;;;;;;;;;;;;;23.73;30.46;97664.98;110189;1240;59773;-75
2023/05/14 09:30:26;;;;;;;;;;;;;;;24.14;30.03;97667.58;110213;1242;59673;-74
2023/05/14 09:32:55;;;;;;;;;;;;;;;24.28;29.26;97656.03;110223;1240;71168;-74
2023/05/14 09:35:23;;;;;;;;;;;;;;;24.19;28.83;97655.37;110212;1241;69210;-76
2023/05/14 09:37:53;;;;;;;;;;;;;;;24.25;29.41;97653.17;110186;1241;69318;-74
2023/05/14 09:40:22;;;;;;;;;;;;;;;24.00;29.23;97657.71;110193;1240;59705;-75
2023/05/14 09:42:53;;;;;;;;;;;;;;;23.43;29.19;97656.98;110163;1242;59685;-76
2023/05/14 09:45:23;;;;;;;;;;;;;;;23.16;29.78;97654.87;110217;1241;70653;-76
2023/05/14 09:47:52;;;;;;;;;;;;;;;23.14;30.27;97652.46;110208;1241;69197;-73
2023/05/14 09:50:21;;;;;;;;;;;;;;;23.15;30.58;97648.77;110191;1243;69134;-74
2023/05/14 09:52:50;;;;;;;;;;;;;;;23.22;30.90;97644.31;110231;1242;59685;-74
2023/05/14 09:55:19;;;;;;;;;;;;;;;23.31;30.09;97640.86;110205;1242;59640;-74
2023/05/14 09:57:48;;;;;;;;;;;;;;;23.38;30.55;97639.85;110207;1242;71244;-75
2023/05/14 10:00:18;;;;;;;;;;;;;;;23.24;30.72;97641.26;110197;1242;68270;-75
2023/05/14 10:02:50;;;;;;;;;;;;;;;23.29;30.73;97642.03;110161;1241;68453;-75
2023/05/14 10:05:20;;;;;;;;;;;;;;;23.21;30.18;97634.13;110265;1242;59753;-73
2023/05/14 10:07:50;;;;;;;;;;;;;;;22.99;30.01;97633.96;110198;1242;59694;-73
2023/05/14 10:10:20;;;;;;;;;;;;;;;22.68;30.71;97635.91;110189;1242;71865;-72
2023/05/14 10:12:56;;;;;;;;;;;;;;;22.76;31.45;97633.25;110265;1240;69046;-72
2023/05/14 10:15:32;;;;;;;;;;;;;;;23.07;31.61;97628.01;110254;1242;68345;-73
2023/05/14 10:18:03;;;;;;;;;;;;;;;23.22;30.81;97621.39;110250;1242;59743;-73
2023/05/14 10:20:31;;;;;;;;;;;;;;;23.26;31.09;97617.50;110243;1242;59679;-74
2023/05/14 10:23:00;;;;;;;;;;;;;;;23.34;31.05;97615.70;110203;1242;71291;-72
2023/05/14 10:25:29;;;;;;;;;;;;;;;23.41;31.05;97609.60;110203;1242;69585;-73
2023/05/14 10:27:58;;;;;;;;;;;;;;;23.49;30.75;97611.85;110167;1242;69710;-72
2023/05/14 10:30:27;;;;;;;;;;;;;;;23.58;31.22;97611.67;110219;1242;59679;-72
2023/05/14 10:33:06;;;;;;;;;;;;;;;23.78;31.09;97606.72;110227;1241;59753;-72
2023/05/14 10:35:53;;;;;;;;;;;;;;;23.91;30.31;97607.55;110265;1240;71920;-72
2023/05/14 10:38:25;;;;;;;;;;;;;;;23.78;28.52;97612.42;110227;1242;69543;-72
2023/05/14 10:41:05;;;;;;;;;;;;;;;23.54;28.78;97607.31;110198;1241;69852;-71
2023/05/14 10:43:37;;;;;;;;;;;;;;;23.25;29.79;97604.48;110158;1241;59740;-74
2023/05/14 10:46:07;;;;;;;;;;;;;;;23.45;30.41;97593.80;110199;1241;59658;-73
2023/05/14 10:48:36;;;;;;;;;;;;;;;23.58;30.43;97593.48;110207;1240;71847;-73
2023/05/14 10:51:06;;;;;;;;;;;;;;;23.86;29.67;97593.42;110191;1241;69685;-73
2023/05/14 10:53:39;;;;;;;;;;;;;;;23.81;29.05;97590.79;110235;1240;69257;-73
2023/05/14 10:56:09;;;;;;;;;;;;;;;23.81;28.72;97593.36;110248;1242;59710;-73
2023/05/14 10:58:40;;;;;;;;;;;;;;;23.86;29.09;97585.25;110139;1244;59685;-73
2023/05/14 11:01:09;;;;;;;;;;;;;;;23.97;28.85;97582.88;110232;1242;71501;-73
2023/05/14 11:03:42;;;;;;;;;;;;;;;24.05;28.10;97578.42;110224;1242;70279;-74
2023/05/14 11:06:13;;;;;;;;;;;;;;;24.29;28.79;97575.91;110222;1241;69854;-73
2023/05/14 11:08:43;;;;;;;;;;;;;;;24.63;29.46;97574.77;110231;1241;59808;-73
2023/05/14 11:11:12;;;;;;;;;;;;;;;24.93;28.35;97562.25;110359;1240;59744;-73
2023/05/14 11:13:41;;;;;;;;;;;;;;;25.08;28.44;97561.02;110327;1242;71300;-72
2023/05/14 11:16:10;;;;;;;;;;;;;;;25.01;28.37;97560.86;110236;1242;69484;-73
2023/05/14 11:19:01;;;;;;;;;;;;;;;24.77;28.72;97559.14;110371;1240;69852;-75
2023/05/14 11:21:33;;;;;;;;;;;;;;;24.73;28.74;97557.80;110297;1241;59728;-73
2023/05/14 11:24:04;;;;;;;;;;;;;;;25.03;28.78;97546.31;110343;1240;59722;-73
2023/05/14 11:26:33;;;;;;;;;;;;;;;25.29;28.75;97541.80;110219;1241;71255;-74
2023/05/14 11:29:01;;;;;;;;;;;;;;;25.67;28.76;97538.39;110170;1242;68088;-72
2023/05/14 11:31:30;;;;;;;;;;;;;;;25.96;28.28;97533.66;110285;1241;69719;-74
2023/05/14 11:33:59;;;;;;;;;;;;;;;26.12;27.80;97529.08;110200;1242;59712;-73
2023/05/14 11:36:28;;;;;;;;;;;;;;;26.13;27.76;97531.80;110271;1242;59731;-73
2023/05/14 11:38:56;;;;;;;;;;;;;;;25.87;27.50;97531.16;110181;1240;72212;-71
2023/05/14 11:41:26;;;;;;;;;;;;;;;25.66;28.11;97521.25;110264;1242;69866;-73
2023/05/14 11:43:55;;;;;;;;;;;;;;;25.99;28.01;97522.36;110183;1242;69075;-73
2023/05/14 11:46:25;;;;;;;;;;;;;;;25.95;27.39;97519.63;110152;1242;59797;-73
2023/05/14 11:48:53;;;;;;;;;;;;;;;25.48;27.87;97526.21;110259;1241;59708;-72
2023/05/14 11:51:23;;;;;;;;;;;;;;;25.33;27.88;97516.91;110237;1241;70692;-73
2023/05/14 11:53:53;;;;;;;;;;;;;;;24.87;28.21;97513.29;110139;1244;69813;-74
2023/05/14 11:56:21;;;;;;;;;;;;;;;24.60;28.94;97504.61;110246;1242;69189;-73
2023/05/14 11:58:54;;;;;;;;;;;;;;;24.59;29.54;97502.43;110194;1242;59677;-73
2023/05/14 12:01:23;;;;;;;;;;;;;;;24.56;29.93;97501.39;110280;1242;59634;-74
2023/05/14 12:03:52;;;;;;;;;;;;;;;24.38;29.72;97500.38;110309;1241;71981;-74
2023/05/14 12:06:29;;;;;;;;;;;;;;;24.12;29.57;97499.00;110216;1240;69575;-73
2023/05/14 12:09:00;;;;;;;;;;;;;;;23.38;30.27;97502.61;110223;1242;68332;-73
2023/05/14 12:11:32;;;;;;;;;;;;;;;23.01;31.13;97502.01;110245;1242;59745;-74
2023/05/14 12:14:00;;;;;;;;;;;;;;;22.71;31.48;97500.11;110252;1240;59644;-74
2023/05/14 12:16:32;;;;;;;;;;;;;;;22.46;31.74;97503.15;110250;1240;72076;-74
2023/05/14 12:19:04;;;;;;;;;;;;;;;22.25;32.31;97503.52;110268;1242;68486;-74
2023/05/14 12:21:33;;;;;;;;;;;;;;;22.08;32.24;97501.98;110152;1241;69276;-74
2023/05/14 12:24:02;;;;;;;;;;;;;;;21.87;32.51;97499.50;110205;1240;60220;-74
2023/05/14 12:26:32;;;;;;;;;;;;;;;21.69;33.15;97506.42;110297;1242;59758;-73
2023/05/14 12:29:02;;;;;;;;;;;;;;;21.56;33.38;97508.14;110173;1242;71961;-74
2023/05/14 12:31:32;;;;;;;;;;;;;;;21.39;33.69;97502.48;110231;1242;69032;-73
2023/05/14 12:34:01;;;;;;;;;;;;;;;21.24;33.83;97496.33;110195;1240;69120;-74
2023/05/14 12:36:31;;;;;;;;;;;;;;;21.14;34.27;97488.28;110265;1242;59740;-74
2023/05/14 12:39:02;;;;;;;;;;;;;;;21.04;34.28;97485.19;110261;1242;59699;-72
2023/05/14 12:41:31;;;;;;;;;;;;;;;21.00;34.31;97480.70;110258;1242;71477;-73
2023/05/14 12:44:01;;;;;;;;;;;;;;;20.87;34.29;97475.84;110317;1242;69186;-73
2023/05/14 12:46:30;;;;;;;;;;;;;;;20.79;35.06;97477.84;110181;1241;69072;-73
2023/05/14 12:48:59;;;;;;;;;;;;;;;20.77;34.93;97480.70;110258;1241;59748;-74
2023/05/14 12:51:27;;;;;;;;;;;;;;;20.72;34.49;97477.63;110235;1242;59769;-74
2023/05/14 12:53:56;;;;;;;;;;;;;;;20.73;34.97;97479.53;110259;1240;71980;-74